createdAt,value
2017-11-18T00:01:51.950Z,30.07
2017-11-18T00:04:19.497Z,32.55
2017-11-18T00:06:47.057Z,32.80
2017-11-18T00:09:16.701Z,32.63
2017-11-18T00:11:44.248Z,31.30
2017-11-18T00:14:12.220Z,32.40
2017-11-18T00:16:39.803Z,34.57
2017-11-18T00:19:07.346Z,41.63
2017-11-18T00:21:35.660Z,42.33
2017-11-18T00:24:04.096Z,42.30
2017-11-18T00:26:31.658Z,34.95
2017-11-18T00:28:59.200Z,35.93
2017-11-18T00:31:27.099Z,37.10
2017-11-18T00:33:54.650Z,36.15
2017-11-18T00:36:22.198Z,37.93
2017-11-18T00:38:49.764Z,34.03
2017-11-18T00:41:17.292Z,33.80
2017-11-18T00:43:44.833Z,41.00
2017-11-18T00:46:14.312Z,35.77
2017-11-18T00:48:41.849Z,34.20
2017-11-18T00:51:10.211Z,32.30
2017-11-18T00:53:38.682Z,42.23
2017-11-18T00:56:07.042Z,38.20
2017-11-18T00:58:34.575Z,36.40
2017-11-18T01:01:02.134Z,35.17
2017-11-18T01:03:30.432Z,35.17
2017-11-18T01:05:57.967Z,33.53
2017-11-18T01:08:25.525Z,33.58
2017-11-18T01:10:53.839Z,33.90
2017-11-18T01:13:21.372Z,33.50
2017-11-18T01:15:49.461Z,35.93
2017-11-18T01:18:16.997Z,34.60
2017-11-18T01:20:45.307Z,35.67
2017-11-18T01:23:13.789Z,33.90
2017-11-18T01:25:42.139Z,34.00
2017-11-18T01:28:09.681Z,37.10
2017-11-18T01:30:38.016Z,33.77
2017-11-18T01:33:05.551Z,34.13
2017-11-18T01:35:33.132Z,33.70
2017-11-18T01:38:00.957Z,34.13
2017-11-18T01:40:29.258Z,35.53
2017-11-18T01:42:56.794Z,35.90
2017-11-18T01:45:25.119Z,35.30
2017-11-18T01:47:52.650Z,33.30
2017-11-18T01:50:20.180Z,36.20
2017-11-18T01:52:47.745Z,34.00
2017-11-18T01:55:16.377Z,35.25
2017-11-18T01:57:44.697Z,32.47
2017-11-18T02:00:13.973Z,32.58
2017-11-18T02:02:43.302Z,34.50
2017-11-18T02:05:11.605Z,30.07
2017-11-18T02:07:39.170Z,31.60
2017-11-18T02:10:06.701Z,33.00
2017-11-18T02:12:35.000Z,34.23
2017-11-18T02:15:02.584Z,33.60
2017-11-18T02:17:30.517Z,33.37
2017-11-18T02:19:58.421Z,34.50
2017-11-18T02:22:26.020Z,33.37
2017-11-18T02:24:54.354Z,34.47
2017-11-18T02:27:21.891Z,32.70
2017-11-18T02:29:49.461Z,35.25
2017-11-18T02:32:17.685Z,33.55
2017-11-18T02:34:45.993Z,33.07
2017-11-18T02:37:14.505Z,32.85
2017-11-18T02:48:12.130Z,34.50
2017-11-18T02:50:39.741Z,33.93
2017-11-18T02:53:07.270Z,31.53
2017-11-18T02:55:34.827Z,30.43
2017-11-18T02:58:02.359Z,32.17
2017-11-18T03:00:29.900Z,32.65
2017-11-18T03:02:57.465Z,35.95
2017-11-18T03:05:24.997Z,31.80
2017-11-18T03:07:52.581Z,32.85
2017-11-18T03:10:20.473Z,33.25
2017-11-18T03:12:48.008Z,31.70
2017-11-18T03:15:16.516Z,32.83
2017-11-18T03:17:44.073Z,30.30
2017-11-18T03:20:11.613Z,31.50
2017-11-18T03:22:39.148Z,32.73
2017-11-18T03:25:06.717Z,29.20
2017-11-18T03:27:34.247Z,27.80
2017-11-18T03:30:01.788Z,28.50
2017-11-18T03:32:30.137Z,30.60
2017-11-18T03:34:57.669Z,29.80
2017-11-18T03:37:25.219Z,29.43
2017-11-18T03:39:52.788Z,29.87
2017-11-18T03:42:20.334Z,29.52
2017-11-18T03:44:47.868Z,31.07
2017-11-18T03:47:17.225Z,30.45
2017-11-18T03:49:44.761Z,31.93
2017-11-18T03:52:12.295Z,32.63
2017-11-18T03:54:39.902Z,35.67
2017-11-18T03:57:07.441Z,34.67
2017-11-18T03:59:34.973Z,33.40
2017-11-18T04:02:03.299Z,31.60
2017-11-18T04:04:30.837Z,33.17
2017-11-18T04:06:58.368Z,32.27
2017-11-18T04:09:26.722Z,35.60
2017-11-18T04:11:54.253Z,36.47
2017-11-18T04:14:21.792Z,33.17
2017-11-18T04:16:49.393Z,35.70
2017-11-18T04:19:17.998Z,34.10
2017-11-18T04:21:45.533Z,34.70
2017-11-18T04:24:19.529Z,36.05
2017-11-18T04:29:30.309Z,36.60
2017-11-18T04:31:57.844Z,35.50
2017-11-18T04:34:25.409Z,34.47
2017-11-18T04:36:52.988Z,34.83
2017-11-18T04:39:20.529Z,37.80
2017-11-18T04:41:48.071Z,33.90
2017-11-18T04:44:17.288Z,37.67
2017-11-18T04:46:44.841Z,33.60
2017-11-18T04:49:12.399Z,33.73
2017-11-18T04:51:39.970Z,36.47
2017-11-18T04:54:07.522Z,36.75
2017-11-18T04:56:35.060Z,34.93
2017-11-18T04:59:02.660Z,36.40
2017-11-18T05:01:30.198Z,37.72
2017-11-18T05:03:57.741Z,35.43
2017-11-18T05:06:25.300Z,35.15
2017-11-18T05:08:52.832Z,36.70
2017-11-18T05:11:21.129Z,38.00
2017-11-18T05:13:48.691Z,35.70
2017-11-18T05:16:16.506Z,36.93
2017-11-18T05:18:44.060Z,36.77
2017-11-18T05:21:12.333Z,37.55
2017-11-18T05:23:39.859Z,35.30
2017-11-18T05:26:07.410Z,34.83
2017-11-18T05:28:34.973Z,36.23
2017-11-18T05:31:02.531Z,39.30
2017-11-18T05:33:30.066Z,35.25
2017-11-18T05:35:57.656Z,36.92
2017-11-18T05:38:25.188Z,35.97
2017-11-18T05:40:52.724Z,37.30
2017-11-18T05:43:21.093Z,36.38
2017-11-18T05:45:48.652Z,35.53
2017-11-18T05:48:16.400Z,39.53
2017-11-18T05:50:43.974Z,38.67
2017-11-18T05:53:11.508Z,36.40
2017-11-18T05:55:39.045Z,37.70
2017-11-18T05:58:06.609Z,39.13
2017-11-18T06:00:34.142Z,34.40
2017-11-18T06:03:01.690Z,35.58
2017-11-18T06:05:30.049Z,37.20
2017-11-18T06:07:57.582Z,37.33
2017-11-18T06:10:25.124Z,37.63
2017-11-18T06:12:52.684Z,38.33
2017-11-18T06:15:20.221Z,41.03
2017-11-18T06:17:47.757Z,40.13
2017-11-18T06:20:16.473Z,40.88
2017-11-18T06:22:44.421Z,36.57
2017-11-18T06:25:11.965Z,38.60
2017-11-18T06:27:40.325Z,40.28
2017-11-18T06:30:07.853Z,39.00
2017-11-18T06:32:35.475Z,38.80
2017-11-18T06:35:03.169Z,37.37
2017-11-18T06:37:30.728Z,36.37
2017-11-18T06:39:58.264Z,36.43
2017-11-18T06:42:25.861Z,34.10
2017-11-18T06:44:53.399Z,37.03
2017-11-18T06:47:21.040Z,37.13
2017-11-18T06:49:48.710Z,36.97
2017-11-18T06:52:16.430Z,37.13
2017-11-18T06:54:44.756Z,36.33
2017-11-18T06:57:12.337Z,35.47
2017-11-18T06:59:39.874Z,38.50
2017-11-18T07:02:07.436Z,38.58
2017-11-18T07:04:35.029Z,39.57
2017-11-18T07:07:02.705Z,41.50
2017-11-18T07:09:30.284Z,44.53
2017-11-18T07:11:59.580Z,43.93
2017-11-18T07:14:27.894Z,41.53
2017-11-18T07:16:55.439Z,41.17
2017-11-18T07:19:23.077Z,41.53
2017-11-18T07:21:50.626Z,38.83
2017-11-18T07:24:19.252Z,40.80
2017-11-18T07:26:47.153Z,37.47
2017-11-18T07:29:17.638Z,40.42
2017-11-18T07:31:45.188Z,37.17
2017-11-18T07:34:14.638Z,36.60
2017-11-18T07:36:42.270Z,39.10
2017-11-18T07:39:09.813Z,37.60
2017-11-18T07:41:38.140Z,38.30
2017-11-18T07:44:05.725Z,36.20
2017-11-18T07:46:33.260Z,35.40
2017-11-18T07:49:00.857Z,37.10
2017-11-18T07:51:29.176Z,35.45
2017-11-18T07:53:56.717Z,35.97
2017-11-18T07:56:24.461Z,36.22
2017-11-18T07:58:52.829Z,36.07
2017-11-18T08:01:20.364Z,38.45
2017-11-18T08:03:47.966Z,37.10
2017-11-18T08:06:17.177Z,36.17
2017-11-18T08:08:45.489Z,41.00
2017-11-18T08:11:25.916Z,40.85
2017-11-18T08:16:27.400Z,40.17
2017-11-18T08:18:54.947Z,40.13
2017-11-18T08:21:22.481Z,40.10
2017-11-18T08:23:50.048Z,39.70
2017-11-18T08:26:17.745Z,42.90
2017-11-18T08:28:46.051Z,42.60
2017-11-18T08:31:25.695Z,40.60
2017-11-18T08:42:18.269Z,37.70
2017-11-18T08:44:46.816Z,36.50
2017-11-18T08:47:26.629Z,37.38
2017-11-18T08:55:07.229Z,33.53
2017-11-18T08:57:35.546Z,34.67
2017-11-18T09:00:03.092Z,31.93
2017-11-18T09:02:30.702Z,28.30
2017-11-18T09:04:58.236Z,33.27
2017-11-18T09:07:25.776Z,33.33
2017-11-18T09:09:53.352Z,30.70
2017-11-18T09:12:20.974Z,31.33
2017-11-18T09:14:48.657Z,29.23
2017-11-18T09:17:16.524Z,30.62
2017-11-18T09:19:44.475Z,29.47
2017-11-18T09:22:12.017Z,25.87
2017-11-18T09:24:39.691Z,27.00
2017-11-18T09:27:08.474Z,25.43
2017-11-18T09:29:37.009Z,28.13
2017-11-18T09:32:05.378Z,26.07
2017-11-18T09:34:32.926Z,26.62
2017-11-18T09:37:00.603Z,25.20
2017-11-18T09:39:28.186Z,24.13
2017-11-18T09:41:55.724Z,23.10
2017-11-18T09:44:23.252Z,23.50
2017-11-18T09:46:50.844Z,22.93
2017-11-18T09:49:18.380Z,21.80
2017-11-18T09:51:45.909Z,21.27
2017-11-18T09:54:15.460Z,20.60
2017-11-18T09:56:43.003Z,22.10
2017-11-18T09:59:10.558Z,20.60
2017-11-18T10:01:38.905Z,19.73
2017-11-18T10:04:07.213Z,21.62
2017-11-18T10:06:34.748Z,19.90
2017-11-18T10:09:03.097Z,19.90
2017-11-18T10:11:30.690Z,20.20
2017-11-18T10:13:58.237Z,20.97
2017-11-18T10:16:26.585Z,19.70
2017-11-18T10:18:54.133Z,19.40
2017-11-18T10:21:22.599Z,19.40
2017-11-18T10:23:50.177Z,17.83
2017-11-18T10:26:18.197Z,18.63
2017-11-18T10:28:46.269Z,18.20
2017-11-18T10:31:15.677Z,19.80
2017-11-18T10:33:43.222Z,19.03
2017-11-18T10:36:11.528Z,17.37
2017-11-18T10:38:39.093Z,18.40
2017-11-18T10:41:06.629Z,18.53
2017-11-18T10:43:34.234Z,18.27
2017-11-18T10:46:01.793Z,19.50
2017-11-18T10:48:29.357Z,19.07
2017-11-18T10:50:56.897Z,21.70
2017-11-18T10:53:24.498Z,21.67
2017-11-18T10:55:52.819Z,20.07
2017-11-18T10:58:20.357Z,22.36
2017-11-18T11:00:47.925Z,20.53
2017-11-18T11:03:17.216Z,20.85
2017-11-18T11:05:44.756Z,22.00
2017-11-18T11:08:12.321Z,20.23
2017-11-18T11:10:39.860Z,18.20
2017-11-18T11:13:07.400Z,19.87
2017-11-18T11:15:34.989Z,17.60
2017-11-18T11:18:02.545Z,18.80
2017-11-18T11:20:30.845Z,19.87
2017-11-18T11:22:59.091Z,18.90
2017-11-18T11:25:28.174Z,18.00
2017-11-18T11:27:55.716Z,16.80
2017-11-18T11:30:23.867Z,18.17
2017-11-18T11:32:51.408Z,18.02
2017-11-18T11:35:18.978Z,14.80
2017-11-18T11:37:46.570Z,15.07
2017-11-18T11:40:15.434Z,15.63
2017-11-18T11:51:43.009Z,13.33
2017-11-18T11:54:10.598Z,13.62
2017-11-18T11:56:38.151Z,14.63
2017-11-18T11:59:05.761Z,12.23
2017-11-18T12:01:33.296Z,11.93
2017-11-18T12:04:00.840Z,11.47
2017-11-18T12:06:28.408Z,11.97
2017-11-18T12:08:55.945Z,12.00
2017-11-18T12:11:23.485Z,11.88
2017-11-18T12:13:51.067Z,11.00
2017-11-18T12:16:18.610Z,11.23
2017-11-18T12:18:46.152Z,10.93
2017-11-18T12:21:16.366Z,12.10
2017-11-18T12:23:43.914Z,11.80
2017-11-18T12:26:11.448Z,12.20
2017-11-18T12:28:39.016Z,11.60
2017-11-18T12:31:07.707Z,11.55
2017-11-18T12:33:36.055Z,13.07
2017-11-18T12:36:03.664Z,12.13
2017-11-18T12:38:32.029Z,10.90
2017-11-18T12:40:59.566Z,12.00
2017-11-18T12:43:27.170Z,13.00
2017-11-18T12:45:55.492Z,12.60
2017-11-18T12:48:23.298Z,11.90
2017-11-18T12:50:50.866Z,12.63
2017-11-18T12:53:19.169Z,12.30
2017-11-18T12:55:46.709Z,10.70
2017-11-18T12:58:16.382Z,12.35
2017-11-18T13:00:43.983Z,15.47
2017-11-18T13:03:12.293Z,16.83
2017-11-18T13:05:39.885Z,13.73
2017-11-18T13:08:07.430Z,16.40
2017-11-18T13:10:34.973Z,21.47
2017-11-18T13:13:02.537Z,14.52
2017-11-18T13:15:30.073Z,13.53
2017-11-18T13:17:57.610Z,13.60
2017-11-18T13:20:25.949Z,12.40
2017-11-18T13:22:53.505Z,13.13
2017-11-18T13:25:21.118Z,15.23
2017-11-18T13:27:48.718Z,14.00
2017-11-18T13:30:16.539Z,13.95
2017-11-18T13:32:45.099Z,15.80
2017-11-18T13:35:14.576Z,15.43
2017-11-18T13:37:42.118Z,13.53
2017-11-18T13:40:09.658Z,14.17
2017-11-18T13:42:37.224Z,15.27
2017-11-18T13:45:04.768Z,14.17
2017-11-18T13:47:32.339Z,13.68
2017-11-18T13:50:00.341Z,14.50
2017-11-18T13:52:27.898Z,13.23
2017-11-18T13:54:55.441Z,15.05
2017-11-18T13:57:23.024Z,16.10
2017-11-18T13:59:50.562Z,15.60
2017-11-18T14:02:18.097Z,13.67
2017-11-18T14:04:45.675Z,14.20
2017-11-18T14:07:15.368Z,13.27
2017-11-18T14:09:42.905Z,12.20
2017-11-18T14:12:11.266Z,12.90
2017-11-18T14:14:38.793Z,14.50
2017-11-18T14:17:06.350Z,12.07
2017-11-18T14:19:33.917Z,15.00
2017-11-18T14:22:01.509Z,15.37
2017-11-18T14:24:29.065Z,13.43
2017-11-18T14:26:57.405Z,15.53
2017-11-18T14:29:24.938Z,14.57
2017-11-18T14:31:52.485Z,14.73
2017-11-18T14:34:20.719Z,14.80
2017-11-18T14:36:48.287Z,14.10
2017-11-18T14:39:16.388Z,14.90
2017-11-18T14:41:43.953Z,15.40
2017-11-18T14:44:11.504Z,15.10
2017-11-18T14:46:39.069Z,14.50
2017-11-18T14:49:06.641Z,13.70
2017-11-18T14:51:34.211Z,15.67
2017-11-18T14:54:01.775Z,16.40
2017-11-18T14:56:29.356Z,15.23
2017-11-18T14:58:56.893Z,17.70
2017-11-18T15:01:24.446Z,15.20
2017-11-18T15:03:52.004Z,16.97
2017-11-18T15:06:19.532Z,15.52
2017-11-18T15:08:47.825Z,16.77
2017-11-18T15:11:17.244Z,17.33
2017-11-18T15:13:44.790Z,16.67
2017-11-18T15:16:19.276Z,15.40
2017-11-18T15:18:56.409Z,17.50
2017-11-18T15:21:26.798Z,15.40
2017-11-18T15:27:03.889Z,16.37
2017-11-18T15:29:49.856Z,16.50
2017-11-18T15:32:20.615Z,16.67
2017-11-18T15:35:03.477Z,15.40
2017-11-18T15:37:36.763Z,16.00
2017-11-18T15:40:04.388Z,15.73
2017-11-18T15:42:31.937Z,15.10
2017-11-18T15:45:02.728Z,16.07
2017-11-18T15:47:35.917Z,15.60
2017-11-18T15:50:09.179Z,14.20
2017-11-18T15:52:37.496Z,13.53
2017-11-18T15:55:06.464Z,14.00
2017-11-18T15:57:36.959Z,12.68
2017-11-18T16:00:07.885Z,14.98
2017-11-18T16:02:36.657Z,16.00
2017-11-18T16:05:05.625Z,13.90
2017-11-18T16:07:35.727Z,14.68
2017-11-18T16:10:03.296Z,15.10
2017-11-18T16:12:31.192Z,14.17
2017-11-18T16:15:00.032Z,14.03
2017-11-18T16:17:27.891Z,14.48
2017-11-18T16:19:55.656Z,14.37
2017-11-18T16:22:23.729Z,13.40
2017-11-18T16:24:51.374Z,14.90
2017-11-18T16:27:19.709Z,13.97
2017-11-18T16:29:47.982Z,13.37
2017-11-18T16:32:16.333Z,14.70
2017-11-18T16:34:43.930Z,13.50
2017-11-18T16:37:11.514Z,12.73
2017-11-18T16:39:39.829Z,13.40
2017-11-18T16:42:07.389Z,14.52
2017-11-18T16:44:34.924Z,13.83
2017-11-18T16:47:02.465Z,15.25
2017-11-18T16:49:30.032Z,15.93
2017-11-18T16:51:57.567Z,16.23
2017-11-18T16:54:25.110Z,16.30
2017-11-18T16:56:52.698Z,15.23
2017-11-18T16:59:20.252Z,16.40
2017-11-18T17:01:47.790Z,15.97
2017-11-18T17:04:17.324Z,15.50
2017-11-18T17:06:45.634Z,15.00
2017-11-18T17:09:15.473Z,14.25
2017-11-18T17:11:43.039Z,15.03
2017-11-18T17:14:10.585Z,15.63
2017-11-18T17:16:38.126Z,14.00
2017-11-18T17:19:05.721Z,14.70
2017-11-18T17:21:33.254Z,16.30
2017-11-18T17:24:00.795Z,15.23
2017-11-18T17:26:28.372Z,15.32
2017-11-18T17:28:55.920Z,15.33
2017-11-18T17:31:23.460Z,15.77
2017-11-18T17:33:51.786Z,14.40
2017-11-18T17:36:19.317Z,15.60
2017-11-18T17:38:47.395Z,15.33
2017-11-18T17:41:16.396Z,14.20
2017-11-18T17:43:43.953Z,13.30
2017-11-18T17:46:11.496Z,12.85
2017-11-18T17:48:39.072Z,14.80
2017-11-18T17:51:06.617Z,14.20
2017-11-18T17:53:34.587Z,15.53
2017-11-18T17:56:02.152Z,15.23
2017-11-18T17:58:29.701Z,16.52
2017-11-18T18:00:57.282Z,17.33
2017-11-18T18:03:24.886Z,17.03
2017-11-18T18:05:53.206Z,16.80
2017-11-18T18:08:20.736Z,15.10
2017-11-18T18:10:49.065Z,15.80
2017-11-18T18:13:16.609Z,15.83
2017-11-18T18:15:44.165Z,14.70
2017-11-18T18:18:11.751Z,15.30
2017-11-18T18:20:40.072Z,15.50
2017-11-18T18:23:07.612Z,14.80
2017-11-18T18:25:35.961Z,16.30
2017-11-18T18:28:03.509Z,18.00
2017-11-18T18:30:31.055Z,16.13
2017-11-18T18:32:58.634Z,14.37
2017-11-18T18:35:26.176Z,14.07
2017-11-18T18:37:54.511Z,15.33
2017-11-18T18:40:22.421Z,14.80
2017-11-18T18:42:49.957Z,14.77
2017-11-18T18:45:17.662Z,14.90
2017-11-18T18:47:45.257Z,15.33
2017-11-18T18:50:14.500Z,15.47
2017-11-18T18:52:42.042Z,14.80
2017-11-18T18:55:09.613Z,13.35
2017-11-18T18:57:37.160Z,13.80
2017-11-18T19:00:06.051Z,13.37
2017-11-18T19:02:33.611Z,14.45
2017-11-18T19:05:01.173Z,14.67
2017-11-18T19:07:28.717Z,15.20
2017-11-18T19:09:56.915Z,12.63
2017-11-18T19:12:24.461Z,13.10
2017-11-18T19:14:52.018Z,13.60
2017-11-18T19:17:19.621Z,13.68
2017-11-18T19:19:47.169Z,12.00
2017-11-18T19:22:16.492Z,12.20
2017-11-18T19:24:44.057Z,13.03
2017-11-18T19:27:12.379Z,13.70
2017-11-18T19:29:40.632Z,13.70
2017-11-18T19:32:08.244Z,14.50
2017-11-18T19:34:36.565Z,15.13
2017-11-18T19:37:04.118Z,13.37
2017-11-18T19:39:31.688Z,13.23
2017-11-18T19:41:59.701Z,13.67
2017-11-18T19:44:28.008Z,12.85
2017-11-18T19:46:55.679Z,14.20
2017-11-18T19:49:23.336Z,14.47
2017-11-18T19:51:50.897Z,12.10
2017-11-18T19:54:18.514Z,12.18
2017-11-18T19:56:46.353Z,14.10
2017-11-18T19:59:16.387Z,13.07
2017-11-18T20:01:44.761Z,13.70
2017-11-18T20:04:14.045Z,17.33
2017-11-18T20:06:42.399Z,17.90
2017-11-18T20:09:10.006Z,18.43
2017-11-18T20:11:38.434Z,13.47
2017-11-18T20:14:05.973Z,13.03
2017-11-18T20:16:33.695Z,14.73
2017-11-18T20:19:01.287Z,13.60
2017-11-18T20:21:28.873Z,14.40
2017-11-18T20:23:56.512Z,13.50
2017-11-18T20:26:24.141Z,16.40
2017-11-18T20:28:51.680Z,14.00
2017-11-18T20:31:19.315Z,13.90
2017-11-18T20:33:46.882Z,14.60
2017-11-18T20:36:16.249Z,14.75
2017-11-18T20:38:43.845Z,15.50
2017-11-18T20:41:11.404Z,15.57
2017-11-18T20:43:39.378Z,12.50
2017-11-18T20:46:06.953Z,15.87
2017-11-18T20:48:34.508Z,14.32
2017-11-18T20:51:02.115Z,15.90
2017-11-18T20:53:29.676Z,17.90
2017-11-18T20:55:57.356Z,16.30
2017-11-18T20:58:24.925Z,15.10
2017-11-18T21:00:52.796Z,16.73
2017-11-18T21:03:20.407Z,15.48
2017-11-18T21:05:48.024Z,14.40
2017-11-18T21:08:16.492Z,15.95
2017-11-18T21:10:44.046Z,20.90
2017-11-18T21:13:11.611Z,23.63
2017-11-18T21:15:39.194Z,23.70
2017-11-18T21:18:06.732Z,24.70
2017-11-18T21:20:34.331Z,23.07
2017-11-18T21:23:02.857Z,22.10
2017-11-18T21:25:30.419Z,23.95
2017-11-18T21:27:57.997Z,22.97
2017-11-18T21:30:25.617Z,22.65
2017-11-18T21:32:53.181Z,22.37
2017-11-18T21:35:20.877Z,24.00
2017-11-18T21:37:48.619Z,25.63
2017-11-18T21:40:16.464Z,23.55
2017-11-18T21:42:44.010Z,23.40
2017-11-18T21:45:11.833Z,26.30
2017-11-18T21:47:39.429Z,29.30
2017-11-18T21:50:07.794Z,23.67
2017-11-18T21:52:35.368Z,22.93
2017-11-18T21:55:03.689Z,16.93
2017-11-18T21:57:31.262Z,20.98
2017-11-18T21:59:58.843Z,19.07
2017-11-18T22:02:26.393Z,22.25
2017-11-18T22:04:54.036Z,21.80
2017-11-18T22:07:22.079Z,20.46
2017-11-18T22:09:49.745Z,17.90
2017-11-18T22:12:17.427Z,22.33
2017-11-18T22:14:45.025Z,18.97
2017-11-18T22:17:12.560Z,17.83
2017-11-18T22:19:40.100Z,19.30
2017-11-18T22:22:07.757Z,18.03
2017-11-18T22:24:35.345Z,20.27
2017-11-18T22:27:02.889Z,18.47
2017-11-18T22:29:30.489Z,17.47
2017-11-18T22:31:58.179Z,19.00
2017-11-18T22:34:25.749Z,16.03
2017-11-18T22:36:53.312Z,18.67
2017-11-18T22:39:20.881Z,16.63
2017-11-18T22:41:48.493Z,16.40
2017-11-18T22:44:16.510Z,15.80
2017-11-18T22:46:44.647Z,16.23
2017-11-18T22:49:13.979Z,16.30
2017-11-18T22:51:41.567Z,16.50
2017-11-18T22:54:10.830Z,17.20
2017-11-18T22:56:38.428Z,18.30
2017-11-18T22:59:05.985Z,16.80
2017-11-18T23:01:33.737Z,17.33
2017-11-18T23:04:01.281Z,15.47
2017-11-18T23:06:28.868Z,15.80
2017-11-18T23:08:56.432Z,18.20
2017-11-18T23:11:23.992Z,15.47
2017-11-18T23:13:51.606Z,14.97
2017-11-18T23:16:19.136Z,14.77
2017-11-18T23:18:47.445Z,16.98
2017-11-18T23:21:16.500Z,14.77
2017-11-18T23:23:44.796Z,14.77
2017-11-18T23:26:12.333Z,15.40
2017-11-18T23:28:40.660Z,15.10
2017-11-18T23:31:08.962Z,14.80
2017-11-18T23:33:36.515Z,13.73
2017-11-18T23:36:04.107Z,14.37
2017-11-18T23:38:32.413Z,14.13
2017-11-18T23:40:59.957Z,14.80
2017-11-18T23:43:27.533Z,15.43
2017-11-18T23:45:55.101Z,14.40
2017-11-18T23:48:22.784Z,14.27
2017-11-18T23:50:50.356Z,14.03
2017-11-18T23:53:17.900Z,13.73
2017-11-18T23:55:45.461Z,14.23
2017-11-18T23:58:24.778Z,13.25
